sensor_id;sensor_type;location;lat;lon;timestamp;pressure;altitude;pressure_sealevel;temperature;humidity
59110;BME280;44895;47.438;18.978;2023-05-02T00:00:53;100151.56;;;12.22;98.30
59110;BME280;44895;47.438;18.978;2023-05-02T00:03:57;100130.66;;;12.46;84.57
59110;BME280;44895;47.438;18.978;2023-05-02T00:07:00;100137.44;;;12.20;100.00
59110;BME280;44895;47.438;18.978;2023-05-02T00:10:04;100133.19;;;12.28;92.61
59110;BME280;44895;47.438;18.978;2023-05-02T00:13:08;100133.50;;;12.27;96.72
59110;BME280;44895;47.438;18.978;2023-05-02T00:16:12;100128.16;;;12.35;89.35
59110;BME280;44895;47.438;18.978;2023-05-02T00:19:16;100129.66;;;12.42;87.74
59110;BME280;44895;47.438;18.978;2023-05-02T00:22:20;100126.81;;;12.47;91.83
59110;BME280;44895;47.438;18.978;2023-05-02T00:25:23;100132.84;;;12.57;87.43
59110;BME280;44895;47.438;18.978;2023-05-02T00:28:27;100135.38;;;12.54;93.38
59110;BME280;44895;47.438;18.978;2023-05-02T00:31:31;100123.09;;;12.56;94.20
59110;BME280;44895;47.438;18.978;2023-05-02T00:34:35;100130.56;;;12.51;92.80
59110;BME280;44895;47.438;18.978;2023-05-02T00:37:38;100131.75;;;12.45;97.65
59110;BME280;44895;47.438;18.978;2023-05-02T00:40:46;100132.66;;;12.40;100.00
59110;BME280;44895;47.438;18.978;2023-05-02T00:43:50;100123.09;;;12.43;96.86
59110;BME280;44895;47.438;18.978;2023-05-02T00:46:54;100131.66;;;12.36;98.28
59110;BME280;44895;47.438;18.978;2023-05-02T00:49:58;100136.00;;;12.37;97.88
59110;BME280;44895;47.438;18.978;2023-05-02T00:53:03;100133.47;;;12.54;98.19
59110;BME280;44895;47.438;18.978;2023-05-02T00:56:07;100133.66;;;12.58;93.17
59110;BME280;44895;47.438;18.978;2023-05-02T00:59:12;100132.16;;;12.52;100.00
59110;BME280;44895;47.438;18.978;2023-05-02T01:02:33;100137.00;;;12.55;94.71
59110;BME280;44895;47.438;18.978;2023-05-02T01:12:53;100140.72;;;12.73;83.24
59110;BME280;44895;47.438;18.978;2023-05-02T01:16:01;100135.94;;;12.79;83.93
59110;BME280;44895;47.438;18.978;2023-05-02T01:19:08;100130.91;;;12.72;92.72
59110;BME280;44895;47.438;18.978;2023-05-02T01:22:15;100131.19;;;12.70;93.34
59110;BME280;44895;47.438;18.978;2023-05-02T01:25:30;100130.84;;;12.63;91.15
59110;BME280;44895;47.438;18.978;2023-05-02T01:28:59;100129.19;;;12.76;87.50
59110;BME280;44895;47.438;18.978;2023-05-02T01:32:05;100131.66;;;12.50;92.71
59110;BME280;44895;47.438;18.978;2023-05-02T01:35:13;100130.34;;;12.47;93.83
59110;BME280;44895;47.438;18.978;2023-05-02T01:38:18;100134.41;;;12.36;94.81
59110;BME280;44895;47.438;18.978;2023-05-02T01:41:28;100127.31;;;12.49;89.81
59110;BME280;44895;47.438;18.978;2023-05-02T01:44:33;100118.38;;;12.34;98.57
59110;BME280;44895;47.438;18.978;2023-05-02T01:47:40;100127.53;;;12.24;100.00
59110;BME280;44895;47.438;18.978;2023-05-02T01:50:46;100127.22;;;12.26;100.00
59110;BME280;44895;47.438;18.978;2023-05-02T01:53:51;100124.25;;;12.14;100.00
59110;BME280;44895;47.438;18.978;2023-05-02T01:56:55;100127.16;;;12.03;100.00
59110;BME280;44895;47.438;18.978;2023-05-02T02:00:00;100117.47;;;11.97;100.00
59110;BME280;44895;47.438;18.978;2023-05-02T02:03:16;100123.09;;;11.73;100.00
59110;BME280;44895;47.438;18.978;2023-05-02T02:06:21;100116.59;;;11.69;100.00
59110;BME280;44895;47.438;18.978;2023-05-02T02:09:24;100117.78;;;11.49;100.00
59110;BME280;44895;47.438;18.978;2023-05-02T02:12:37;100117.28;;;11.47;100.00
59110;BME280;44895;47.438;18.978;2023-05-02T02:15:46;100113.28;;;11.25;100.00
59110;BME280;44895;47.438;18.978;2023-05-02T02:18:53;100115.97;;;11.11;100.00
59110;BME280;44895;47.438;18.978;2023-05-02T02:21:59;100115.38;;;11.14;100.00
59110;BME280;44895;47.438;18.978;2023-05-02T02:25:05;100106.78;;;11.07;100.00
59110;BME280;44895;47.438;18.978;2023-05-02T02:28:10;100107.81;;;11.11;100.00
59110;BME280;44895;47.438;18.978;2023-05-02T02:31:14;100116.31;;;11.04;100.00
59110;BME280;44895;47.438;18.978;2023-05-02T02:34:19;100110.97;;;11.32;100.00
59110;BME280;44895;47.438;18.978;2023-05-02T02:40:55;100111.03;;;10.94;100.00
59110;BME280;44895;47.438;18.978;2023-05-02T02:44:07;100111.72;;;10.86;100.00
59110;BME280;44895;47.438;18.978;2023-05-02T02:50:30;100109.88;;;11.00;100.00
59110;BME280;44895;47.438;18.978;2023-05-02T02:56:47;100109.59;;;10.83;100.00
59110;BME280;44895;47.438;18.978;2023-05-02T03:03:14;100113.31;;;10.68;100.00
59110;BME280;44895;47.438;18.978;2023-05-02T03:06:19;100115.41;;;10.57;100.00
59110;BME280;44895;47.438;18.978;2023-05-02T03:09:24;100119.19;;;10.56;100.00
59110;BME280;44895;47.438;18.978;2023-05-02T03:12:30;100124.63;;;10.56;100.00
59110;BME280;44895;47.438;18.978;2023-05-02T03:19:03;100126.25;;;10.76;100.00
59110;BME280;44895;47.438;18.978;2023-05-02T03:22:07;100128.69;;;10.77;100.00
59110;BME280;44895;47.438;18.978;2023-05-02T03:25:12;100122.75;;;10.56;100.00
59110;BME280;44895;47.438;18.978;2023-05-02T03:28:21;100124.19;;;10.49;100.00
59110;BME280;44895;47.438;18.978;2023-05-02T03:31:27;100132.31;;;10.73;100.00
59110;BME280;44895;47.438;18.978;2023-05-02T03:34:31;100124.34;;;10.76;100.00
59110;BME280;44895;47.438;18.978;2023-05-02T03:37:35;100128.75;;;10.72;100.00
59110;BME280;44895;47.438;18.978;2023-05-02T03:40:39;100137.19;;;10.52;100.00
59110;BME280;44895;47.438;18.978;2023-05-02T03:43:46;100128.91;;;10.62;100.00
59110;BME280;44895;47.438;18.978;2023-05-02T03:46:50;100138.81;;;10.72;100.00
59110;BME280;44895;47.438;18.978;2023-05-02T03:49:54;100137.78;;;10.68;100.00
59110;BME280;44895;47.438;18.978;2023-05-02T03:52:59;100141.94;;;10.60;100.00
59110;BME280;44895;47.438;18.978;2023-05-02T03:56:16;100136.38;;;10.70;100.00
59110;BME280;44895;47.438;18.978;2023-05-02T03:59:26;100143.16;;;10.92;100.00
59110;BME280;44895;47.438;18.978;2023-05-02T04:02:30;100150.50;;;10.91;100.00
59110;BME280;44895;47.438;18.978;2023-05-02T04:05:34;100145.06;;;10.91;100.00
59110;BME280;44895;47.438;18.978;2023-05-02T04:08:38;100146.06;;;10.96;100.00
59110;BME280;44895;47.438;18.978;2023-05-02T04:11:42;100147.63;;;11.02;100.00
59110;BME280;44895;47.438;18.978;2023-05-02T04:14:48;100144.53;;;11.08;100.00
59110;BME280;44895;47.438;18.978;2023-05-02T04:17:52;100149.97;;;11.08;100.00
59110;BME280;44895;47.438;18.978;2023-05-02T04:20:57;100136.09;;;11.43;100.00
59110;BME280;44895;47.438;18.978;2023-05-02T04:24:01;100151.00;;;11.46;100.00
59110;BME280;44895;47.438;18.978;2023-05-02T04:27:06;100147.47;;;11.78;100.00
59110;BME280;44895;47.438;18.978;2023-05-02T04:30:11;100157.25;;;11.93;100.00
59110;BME280;44895;47.438;18.978;2023-05-02T04:33:16;100152.88;;;12.11;100.00
59110;BME280;44895;47.438;18.978;2023-05-02T04:36:21;100153.16;;;12.37;100.00
59110;BME280;44895;47.438;18.978;2023-05-02T04:39:25;100153.94;;;12.66;100.00
59110;BME280;44895;47.438;18.978;2023-05-02T04:42:50;100154.34;;;12.96;100.00
59110;BME280;44895;47.438;18.978;2023-05-02T04:45:57;100162.47;;;13.10;100.00
59110;BME280;44895;47.438;18.978;2023-05-02T04:49:08;100160.22;;;13.26;100.00
59110;BME280;44895;47.438;18.978;2023-05-02T04:52:12;100154.97;;;13.52;100.00
59110;BME280;44895;47.438;18.978;2023-05-02T04:55:17;100160.53;;;13.69;100.00
59110;BME280;44895;47.438;18.978;2023-05-02T04:58:22;100159.34;;;13.93;100.00
59110;BME280;44895;47.438;18.978;2023-05-02T05:01:33;100160.41;;;14.15;100.00
59110;BME280;44895;47.438;18.978;2023-05-02T05:04:38;100168.31;;;14.25;100.00
59110;BME280;44895;47.438;18.978;2023-05-02T05:07:42;100174.44;;;14.31;100.00
59110;BME280;44895;47.438;18.978;2023-05-02T05:10:47;100158.06;;;14.40;100.00
59110;BME280;44895;47.438;18.978;2023-05-02T05:13:51;100158.28;;;14.61;100.00
59110;BME280;44895;47.438;18.978;2023-05-02T05:16:55;100168.44;;;14.69;100.00
59110;BME280;44895;47.438;18.978;2023-05-02T05:19:59;100174.13;;;14.99;97.42
59110;BME280;44895;47.438;18.978;2023-05-02T05:23:04;100173.97;;;15.30;95.72
59110;BME280;44895;47.438;18.978;2023-05-02T05:26:12;100180.88;;;15.45;92.52
59110;BME280;44895;47.438;18.978;2023-05-02T05:29:19;100181.97;;;15.53;88.35
59110;BME280;44895;47.438;18.978;2023-05-02T05:32:23;100180.63;;;15.77;89.29
59110;BME280;44895;47.438;18.978;2023-05-02T05:35:28;100184.59;;;16.06;89.51
59110;BME280;44895;47.438;18.978;2023-05-02T05:38:34;100185.63;;;15.92;85.00
59110;BME280;44895;47.438;18.978;2023-05-02T05:41:39;100191.06;;;16.40;86.43
59110;BME280;44895;47.438;18.978;2023-05-02T05:44:46;100191.13;;;16.82;79.27
59110;BME280;44895;47.438;18.978;2023-05-02T05:47:53;100195.19;;;17.06;73.75
59110;BME280;44895;47.438;18.978;2023-05-02T05:51:02;100178.81;;;21.01;61.79
59110;BME280;44895;47.438;18.978;2023-05-02T05:54:06;100186.50;;;21.50;50.00
59110;BME280;44895;47.438;18.978;2023-05-02T05:57:10;100178.25;;;23.01;49.69
59110;BME280;44895;47.438;18.978;2023-05-02T06:00:15;100183.84;;;24.14;45.01
59110;BME280;44895;47.438;18.978;2023-05-02T06:03:25;100184.31;;;26.21;42.75
59110;BME280;44895;47.438;18.978;2023-05-02T06:06:30;100183.47;;;26.46;40.23
59110;BME280;44895;47.438;18.978;2023-05-02T06:09:36;100179.75;;;27.07;38.86
59110;BME280;44895;47.438;18.978;2023-05-02T06:12:40;100177.19;;;27.48;38.09
59110;BME280;44895;47.438;18.978;2023-05-02T06:15:46;100175.81;;;26.97;38.38
59110;BME280;44895;47.438;18.978;2023-05-02T06:18:50;100177.50;;;27.61;38.22
59110;BME280;44895;47.438;18.978;2023-05-02T06:21:55;100174.69;;;28.21;37.61
59110;BME280;44895;47.438;18.978;2023-05-02T06:24:59;100181.75;;;27.06;37.22
59110;BME280;44895;47.438;18.978;2023-05-02T06:28:03;100186.16;;;27.04;37.86
59110;BME280;44895;47.438;18.978;2023-05-02T06:31:07;100191.81;;;26.53;37.70
59110;BME280;44895;47.438;18.978;2023-05-02T06:34:11;100188.97;;;26.93;37.86
59110;BME280;44895;47.438;18.978;2023-05-02T06:37:14;100177.13;;;29.26;35.89
59110;BME280;44895;47.438;18.978;2023-05-02T06:40:18;100182.69;;;29.88;34.55
59110;BME280;44895;47.438;18.978;2023-05-02T06:43:22;100192.25;;;26.04;36.71
59110;BME280;44895;47.438;18.978;2023-05-02T06:46:28;100186.41;;;27.31;35.76
59110;BME280;44895;47.438;18.978;2023-05-02T06:49:32;100191.56;;;28.87;35.10
59110;BME280;44895;47.438;18.978;2023-05-02T06:52:36;100190.84;;;28.41;34.47
59110;BME280;44895;47.438;18.978;2023-05-02T06:55:40;100180.91;;;29.12;33.86
59110;BME280;44895;47.438;18.978;2023-05-02T06:58:43;100191.22;;;27.27;35.98
59110;BME280;44895;47.438;18.978;2023-05-02T07:01:47;100190.47;;;27.08;36.16
59110;BME280;44895;47.438;18.978;2023-05-02T07:04:51;100191.00;;;26.52;37.42
59110;BME280;44895;47.438;18.978;2023-05-02T07:07:55;100191.78;;;27.74;36.12
59110;BME280;44895;47.438;18.978;2023-05-02T07:10:58;100177.06;;;27.66;36.49
59110;BME280;44895;47.438;18.978;2023-05-02T07:14:02;100193.75;;;26.96;36.69
59110;BME280;44895;47.438;18.978;2023-05-02T07:17:06;100192.63;;;24.79;39.21
59110;BME280;44895;47.438;18.978;2023-05-02T07:20:09;100196.13;;;25.49;38.91
59110;BME280;44895;47.438;18.978;2023-05-02T07:23:14;100192.81;;;24.48;40.11
59110;BME280;44895;47.438;18.978;2023-05-02T07:26:18;100191.66;;;27.18;38.22
59110;BME280;44895;47.438;18.978;2023-05-02T07:29:23;100193.72;;;25.40;39.54
59110;BME280;44895;47.438;18.978;2023-05-02T07:32:27;100201.06;;;24.41;40.34
59110;BME280;44895;47.438;18.978;2023-05-02T07:35:30;100199.66;;;24.09;41.33
59110;BME280;44895;47.438;18.978;2023-05-02T07:38:34;100203.59;;;23.67;41.96
59110;BME280;44895;47.438;18.978;2023-05-02T07:41:38;100202.34;;;23.99;43.00
59110;BME280;44895;47.438;18.978;2023-05-02T07:44:42;100202.56;;;24.80;42.00
59110;BME280;44895;47.438;18.978;2023-05-02T07:47:46;100202.88;;;23.77;42.50
59110;BME280;44895;47.438;18.978;2023-05-02T07:50:49;100198.69;;;22.62;44.84
59110;BME280;44895;47.438;18.978;2023-05-02T07:53:54;100205.53;;;23.29;44.06
59110;BME280;44895;47.438;18.978;2023-05-02T07:57:00;100201.72;;;22.80;44.83
59110;BME280;44895;47.438;18.978;2023-05-02T08:00:06;100200.94;;;23.10;44.59
59110;BME280;44895;47.438;18.978;2023-05-02T08:03:18;100197.84;;;23.49;44.21
59110;BME280;44895;47.438;18.978;2023-05-02T08:06:22;100199.06;;;23.89;44.11
59110;BME280;44895;47.438;18.978;2023-05-02T08:09:26;100187.78;;;23.34;45.20
59110;BME280;44895;47.438;18.978;2023-05-02T08:12:30;100207.81;;;23.20;44.09
59110;BME280;44895;47.438;18.978;2023-05-02T08:15:34;100202.75;;;22.18;45.98
59110;BME280;44895;47.438;18.978;2023-05-02T08:18:38;100203.78;;;22.87;46.39
59110;BME280;44895;47.438;18.978;2023-05-02T08:21:43;100201.31;;;22.28;47.11
59110;BME280;44895;47.438;18.978;2023-05-02T08:24:47;100198.06;;;23.71;45.22
59110;BME280;44895;47.438;18.978;2023-05-02T08:27:51;100196.81;;;24.02;44.46
59110;BME280;44895;47.438;18.978;2023-05-02T08:30:55;100201.22;;;24.10;43.44
59110;BME280;44895;47.438;18.978;2023-05-02T08:34:00;100196.78;;;24.51;43.06
59110;BME280;44895;47.438;18.978;2023-05-02T08:37:08;100195.09;;;23.49;44.21
59110;BME280;44895;47.438;18.978;2023-05-02T08:40:13;100189.63;;;24.50;43.41
59110;BME280;44895;47.438;18.978;2023-05-02T08:43:16;100187.28;;;24.52;43.78
59110;BME280;44895;47.438;18.978;2023-05-02T08:46:21;100188.66;;;24.80;42.97
59110;BME280;44895;47.438;18.978;2023-05-02T08:49:26;100187.13;;;24.86;43.84
59110;BME280;44895;47.438;18.978;2023-05-02T08:52:31;100191.69;;;24.04;43.99
59110;BME280;44895;47.438;18.978;2023-05-02T08:55:38;100196.88;;;22.73;46.03
59110;BME280;44895;47.438;18.978;2023-05-02T08:58:43;100180.91;;;22.36;46.57
59110;BME280;44895;47.438;18.978;2023-05-02T09:01:54;100188.53;;;22.20;47.13
59110;BME280;44895;47.438;18.978;2023-05-02T09:05:05;100182.84;;;22.59;47.49
59110;BME280;44895;47.438;18.978;2023-05-02T09:08:10;100175.28;;;22.56;47.49
59110;BME280;44895;47.438;18.978;2023-05-02T09:11:15;100175.28;;;22.56;47.13
59110;BME280;44895;47.438;18.978;2023-05-02T09:14:19;100174.53;;;22.36;49.77
59110;BME280;44895;47.438;18.978;2023-05-02T09:17:23;100173.13;;;22.72;48.46
59110;BME280;44895;47.438;18.978;2023-05-02T09:20:27;100166.72;;;22.38;47.38
59110;BME280;44895;47.438;18.978;2023-05-02T09:23:45;100176.72;;;22.46;48.03
59110;BME280;44895;47.438;18.978;2023-05-02T09:27:03;100177.22;;;21.59;46.77
59110;BME280;44895;47.438;18.978;2023-05-02T09:30:24;100185.59;;;21.62;47.58
59110;BME280;44895;47.438;18.978;2023-05-02T09:33:28;100179.38;;;21.69;48.14
59110;BME280;44895;47.438;18.978;2023-05-02T09:36:47;100176.94;;;21.87;48.50
59110;BME280;44895;47.438;18.978;2023-05-02T09:40:06;100179.94;;;21.78;48.37
59110;BME280;44895;47.438;18.978;2023-05-02T09:43:14;100170.09;;;22.27;48.88
59110;BME280;44895;47.438;18.978;2023-05-02T09:46:19;100166.63;;;22.34;48.12
59110;BME280;44895;47.438;18.978;2023-05-02T09:52:59;100171.69;;;22.28;48.10
59110;BME280;44895;47.438;18.978;2023-05-02T09:56:04;100166.78;;;21.72;47.21
59110;BME280;44895;47.438;18.978;2023-05-02T09:59:11;100174.03;;;21.57;47.38
59110;BME280;44895;47.438;18.978;2023-05-02T10:02:17;100174.84;;;21.57;47.67
59110;BME280;44895;47.438;18.978;2023-05-02T10:05:23;100184.06;;;21.88;48.24
59110;BME280;44895;47.438;18.978;2023-05-02T10:08:27;100173.75;;;22.08;48.38
59110;BME280;44895;47.438;18.978;2023-05-02T10:11:31;100172.19;;;22.11;47.91
59110;BME280;44895;47.438;18.978;2023-05-02T10:14:39;100167.53;;;21.92;47.85
59110;BME280;44895;47.438;18.978;2023-05-02T10:17:47;100167.25;;;21.74;48.82
59110;BME280;44895;47.438;18.978;2023-05-02T10:20:58;100180.41;;;21.61;49.38
59110;BME280;44895;47.438;18.978;2023-05-02T10:24:02;100169.00;;;21.86;49.64
59110;BME280;44895;47.438;18.978;2023-05-02T10:27:07;100171.28;;;21.80;49.44
59110;BME280;44895;47.438;18.978;2023-05-02T10:30:12;100175.16;;;21.75;49.93
59110;BME280;44895;47.438;18.978;2023-05-02T10:33:16;100164.34;;;21.90;48.84
59110;BME280;44895;47.438;18.978;2023-05-02T10:36:23;100159.34;;;22.22;49.90
59110;BME280;44895;47.438;18.978;2023-05-02T10:39:31;100168.63;;;21.87;48.72
59110;BME280;44895;47.438;18.978;2023-05-02T10:42:37;100160.41;;;21.91;48.97
59110;BME280;44895;47.438;18.978;2023-05-02T10:45:42;100158.31;;;22.07;49.46
59110;BME280;44895;47.438;18.978;2023-05-02T10:49:03;100156.91;;;21.94;48.26
59110;BME280;44895;47.438;18.978;2023-05-02T10:52:36;100164.19;;;21.82;48.77
59110;BME280;44895;47.438;18.978;2023-05-02T10:55:40;100153.75;;;21.72;48.50
59110;BME280;44895;47.438;18.978;2023-05-02T10:58:52;100152.97;;;21.95;49.10
59110;BME280;44895;47.438;18.978;2023-05-02T11:01:57;100147.69;;;21.63;49.70
59110;BME280;44895;47.438;18.978;2023-05-02T11:05:04;100160.09;;;21.96;49.92
59110;BME280;44895;47.438;18.978;2023-05-02T11:11:38;100139.03;;;21.88;49.88
59110;BME280;44895;47.438;18.978;2023-05-02T11:14:45;100130.75;;;21.88;49.60
59110;BME280;44895;47.438;18.978;2023-05-02T11:18:10;100127.78;;;22.27;50.57
59110;BME280;44895;47.438;18.978;2023-05-02T11:21:27;100127.00;;;22.53;52.29
59110;BME280;44895;47.438;18.978;2023-05-02T11:24:44;100119.09;;;22.25;49.87
59110;BME280;44895;47.438;18.978;2023-05-02T11:27:50;100132.88;;;22.48;49.69
59110;BME280;44895;47.438;18.978;2023-05-02T11:30:53;100115.63;;;22.31;47.74
59110;BME280;44895;47.438;18.978;2023-05-02T11:34:01;100119.47;;;22.50;48.47
59110;BME280;44895;47.438;18.978;2023-05-02T11:37:13;100129.44;;;22.89;48.14
59110;BME280;44895;47.438;18.978;2023-05-02T11:40:17;100121.72;;;23.02;46.76
59110;BME280;44895;47.438;18.978;2023-05-02T11:43:22;100116.56;;;22.70;46.62
59110;BME280;44895;47.438;18.978;2023-05-02T11:46:29;100112.84;;;22.89;46.36
59110;BME280;44895;47.438;18.978;2023-05-02T11:49:33;100105.97;;;22.75;46.91
59110;BME280;44895;47.438;18.978;2023-05-02T11:52:38;100108.16;;;22.93;47.77
59110;BME280;44895;47.438;18.978;2023-05-02T11:55:50;100106.28;;;23.01;47.48
59110;BME280;44895;47.438;18.978;2023-05-02T11:58:57;100123.50;;;22.87;47.34
59110;BME280;44895;47.438;18.978;2023-05-02T12:02:02;100110.50;;;22.60;45.72
59110;BME280;44895;47.438;18.978;2023-05-02T12:05:07;100105.81;;;22.64;45.87
59110;BME280;44895;47.438;18.978;2023-05-02T12:08:27;100100.56;;;22.56;46.80
59110;BME280;44895;47.438;18.978;2023-05-02T12:11:32;100100.34;;;22.68;45.08
59110;BME280;44895;47.438;18.978;2023-05-02T12:14:37;100096.84;;;22.75;44.75
59110;BME280;44895;47.438;18.978;2023-05-02T12:17:45;100092.25;;;22.86;44.76
59110;BME280;44895;47.438;18.978;2023-05-02T12:20:52;100102.44;;;22.78;43.83
59110;BME280;44895;47.438;18.978;2023-05-02T12:23:56;100100.59;;;22.90;44.84
59110;BME280;44895;47.438;18.978;2023-05-02T12:27:09;100104.91;;;22.87;43.62
59110;BME280;44895;47.438;18.978;2023-05-02T12:30:24;100099.91;;;23.00;43.79
59110;BME280;44895;47.438;18.978;2023-05-02T12:33:43;100089.84;;;22.85;42.60
59110;BME280;44895;47.438;18.978;2023-05-02T12:36:47;100093.78;;;22.84;42.80
59110;BME280;44895;47.438;18.978;2023-05-02T12:39:50;100093.06;;;22.87;43.01
59110;BME280;44895;47.438;18.978;2023-05-02T12:43:00;100084.56;;;23.06;43.87
59110;BME280;44895;47.438;18.978;2023-05-02T12:46:10;100090.31;;;23.21;44.57
59110;BME280;44895;47.438;18.978;2023-05-02T12:49:13;100091.56;;;22.96;44.51
59110;BME280;44895;47.438;18.978;2023-05-02T12:52:20;100088.53;;;22.71;45.18
59110;BME280;44895;47.438;18.978;2023-05-02T12:55:25;100080.53;;;22.66;45.15
59110;BME280;44895;47.438;18.978;2023-05-02T12:58:39;100090.16;;;22.45;44.89
59110;BME280;44895;47.438;18.978;2023-05-02T13:01:44;100089.09;;;22.54;46.65
59110;BME280;44895;47.438;18.978;2023-05-02T13:04:47;100078.47;;;22.59;44.46
59110;BME280;44895;47.438;18.978;2023-05-02T13:07:51;100083.44;;;22.46;43.79
59110;BME280;44895;47.438;18.978;2023-05-02T13:10:55;100078.97;;;22.38;43.91
59110;BME280;44895;47.438;18.978;2023-05-02T13:14:00;100077.47;;;22.44;43.59
59110;BME280;44895;47.438;18.978;2023-05-02T13:17:05;100077.09;;;22.42;44.01
59110;BME280;44895;47.438;18.978;2023-05-02T13:20:11;100068.84;;;22.50;44.05
59110;BME280;44895;47.438;18.978;2023-05-02T13:23:15;100065.63;;;22.44;44.04
59110;BME280;44895;47.438;18.978;2023-05-02T13:26:19;100073.66;;;22.53;45.90
59110;BME280;44895;47.438;18.978;2023-05-02T13:29:23;100061.75;;;22.48;44.49
59110;BME280;44895;47.438;18.978;2023-05-02T13:32:27;100073.59;;;22.49;45.48
59110;BME280;44895;47.438;18.978;2023-05-02T13:35:31;100061.59;;;22.38;44.56
59110;BME280;44895;47.438;18.978;2023-05-02T13:38:35;100067.69;;;22.24;44.46
59110;BME280;44895;47.438;18.978;2023-05-02T13:41:38;100065.25;;;22.19;45.02
59110;BME280;44895;47.438;18.978;2023-05-02T13:44:42;100063.88;;;22.32;46.01
59110;BME280;44895;47.438;18.978;2023-05-02T13:47:46;100068.19;;;22.29;45.39
59110;BME280;44895;47.438;18.978;2023-05-02T13:50:50;100064.47;;;22.18;44.91
59110;BME280;44895;47.438;18.978;2023-05-02T13:53:54;100070.47;;;22.24;45.92
59110;BME280;44895;47.438;18.978;2023-05-02T13:56:58;100071.22;;;22.21;45.83
59110;BME280;44895;47.438;18.978;2023-05-02T14:00:02;100065.72;;;21.97;45.07
59110;BME280;44895;47.438;18.978;2023-05-02T14:03:08;100064.63;;;22.02;44.98
59110;BME280;44895;47.438;18.978;2023-05-02T14:06:13;100070.94;;;22.03;45.06
59110;BME280;44895;47.438;18.978;2023-05-02T14:09:17;100069.38;;;22.02;45.17
59110;BME280;44895;47.438;18.978;2023-05-02T14:12:20;100060.44;;;22.12;45.23
59110;BME280;44895;47.438;18.978;2023-05-02T14:15:24;100070.41;;;22.20;45.70
59110;BME280;44895;47.438;18.978;2023-05-02T14:18:29;100049.97;;;21.98;45.37
59110;BME280;44895;47.438;18.978;2023-05-02T14:21:33;100068.03;;;21.92;46.58
59110;BME280;44895;47.438;18.978;2023-05-02T14:24:37;100068.75;;;21.89;46.07
59110;BME280;44895;47.438;18.978;2023-05-02T14:27:41;100061.75;;;21.95;45.98
59110;BME280;44895;47.438;18.978;2023-05-02T14:30:47;100066.00;;;21.89;46.54
59110;BME280;44895;47.438;18.978;2023-05-02T14:33:51;100069.88;;;21.84;45.32
59110;BME280;44895;47.438;18.978;2023-05-02T14:36:55;100066.69;;;21.82;44.92
59110;BME280;44895;47.438;18.978;2023-05-02T14:39:58;100065.00;;;21.74;44.71
59110;BME280;44895;47.438;18.978;2023-05-02T14:43:02;100066.16;;;21.73;44.83
59110;BME280;44895;47.438;18.978;2023-05-02T14:46:07;100063.63;;;21.64;44.89
59110;BME280;44895;47.438;18.978;2023-05-02T14:49:10;100077.22;;;21.53;45.70
59110;BME280;44895;47.438;18.978;2023-05-02T14:52:14;100072.88;;;21.52;45.14
59110;BME280;44895;47.438;18.978;2023-05-02T14:55:18;100075.22;;;21.50;46.04
59110;BME280;44895;47.438;18.978;2023-05-02T14:58:21;100072.75;;;21.45;45.96
59110;BME280;44895;47.438;18.978;2023-05-02T15:01:25;100070.38;;;21.43;45.71
59110;BME280;44895;47.438;18.978;2023-05-02T15:04:29;100074.28;;;21.42;45.52
59110;BME280;44895;47.438;18.978;2023-05-02T15:07:33;100070.09;;;21.52;45.88
59110;BME280;44895;47.438;18.978;2023-05-02T15:10:38;100069.75;;;21.54;46.13
59110;BME280;44895;47.438;18.978;2023-05-02T15:13:41;100081.84;;;21.45;45.68
59110;BME280;44895;47.438;18.978;2023-05-02T15:16:45;100072.63;;;21.38;45.80
59110;BME280;44895;47.438;18.978;2023-05-02T15:19:49;100076.13;;;21.34;46.75
59110;BME280;44895;47.438;18.978;2023-05-02T15:22:52;100071.78;;;21.33;47.05
59110;BME280;44895;47.438;18.978;2023-05-02T15:25:56;100070.53;;;21.31;46.81
59110;BME280;44895;47.438;18.978;2023-05-02T15:29:00;100068.94;;;21.30;46.89
59110;BME280;44895;47.438;18.978;2023-05-02T15:32:04;100059.44;;;21.27;47.43
59110;BME280;44895;47.438;18.978;2023-05-02T15:35:07;100065.19;;;21.18;47.77
59110;BME280;44895;47.438;18.978;2023-05-02T15:38:11;100061.13;;;21.12;47.25
59110;BME280;44895;47.438;18.978;2023-05-02T15:41:16;100059.50;;;21.11;47.44
59110;BME280;44895;47.438;18.978;2023-05-02T15:44:20;100057.91;;;21.10;46.84
59110;BME280;44895;47.438;18.978;2023-05-02T15:47:23;100058.66;;;21.07;47.28
59110;BME280;44895;47.438;18.978;2023-05-02T15:50:27;100064.56;;;21.06;48.45
59110;BME280;44895;47.438;18.978;2023-05-02T15:53:31;100065.34;;;21.06;49.16
59110;BME280;44895;47.438;18.978;2023-05-02T15:56:34;100060.03;;;20.97;50.47
59110;BME280;44895;47.438;18.978;2023-05-02T15:59:38;100073.00;;;20.93;52.62
59110;BME280;44895;47.438;18.978;2023-05-02T16:02:42;100071.69;;;20.87;55.47
59110;BME280;44895;47.438;18.978;2023-05-02T16:05:46;100076.56;;;20.74;59.23
59110;BME280;44895;47.438;18.978;2023-05-02T16:08:50;100075.31;;;20.72;61.45
59110;BME280;44895;47.438;18.978;2023-05-02T16:11:53;100072.75;;;20.63;66.46
59110;BME280;44895;47.438;18.978;2023-05-02T16:14:57;100071.78;;;20.55;69.66
59110;BME280;44895;47.438;18.978;2023-05-02T16:18:01;100071.44;;;20.57;71.03
59110;BME280;44895;47.438;18.978;2023-05-02T16:21:05;100071.25;;;20.49;70.15
59110;BME280;44895;47.438;18.978;2023-05-02T16:24:10;100079.13;;;20.47;73.21
59110;BME280;44895;47.438;18.978;2023-05-02T16:27:13;100078.16;;;20.40;73.95